sensor_id;sensor_type;location;lat;lon;timestamp;temperature;humidity
32612;DHT22;19030;49.478;8.986;2023-03-23T00:01:30;13.20;99.90
32612;DHT22;19030;49.478;8.986;2023-03-23T00:03:31;13.20;99.90
32612;DHT22;19030;49.478;8.986;2023-03-23T00:05:32;13.30;99.90
32612;DHT22;19030;49.478;8.986;2023-03-23T00:07:34;13.30;99.90
32612;DHT22;19030;49.478;8.986;2023-03-23T00:09:35;13.40;99.90
32612;DHT22;19030;49.478;8.986;2023-03-23T00:11:42;13.30;99.90
32612;DHT22;19030;49.478;8.986;2023-03-23T00:13:43;13.40;99.90
32612;DHT22;19030;49.478;8.986;2023-03-23T00:15:44;13.40;99.90
32612;DHT22;19030;49.478;8.986;2023-03-23T00:17:44;13.40;99.90
32612;DHT22;19030;49.478;8.986;2023-03-23T00:19:45;13.30;99.90
32612;DHT22;19030;49.478;8.986;2023-03-23T00:21:48;13.30;99.90
32612;DHT22;19030;49.478;8.986;2023-03-23T00:23:53;13.20;99.90
32612;DHT22;19030;49.478;8.986;2023-03-23T00:25:55;13.20;99.90
32612;DHT22;19030;49.478;8.986;2023-03-23T00:27:59;13.20;99.90
32612;DHT22;19030;49.478;8.986;2023-03-23T00:30:00;13.10;99.90
32612;DHT22;19030;49.478;8.986;2023-03-23T00:32:01;13.00;99.90
32612;DHT22;19030;49.478;8.986;2023-03-23T00:34:06;12.90;99.90
32612;DHT22;19030;49.478;8.986;2023-03-23T00:36:11;12.90;99.90
32612;DHT22;19030;49.478;8.986;2023-03-23T00:38:12;12.80;99.90
32612;DHT22;19030;49.478;8.986;2023-03-23T00:40:13;12.70;99.90
32612;DHT22;19030;49.478;8.986;2023-03-23T00:42:14;12.70;99.90
32612;DHT22;19030;49.478;8.986;2023-03-23T00:44:15;12.70;99.90
32612;DHT22;19030;49.478;8.986;2023-03-23T00:46:18;12.70;99.90
32612;DHT22;19030;49.478;8.986;2023-03-23T00:48:21;12.60;99.90
32612;DHT22;19030;49.478;8.986;2023-03-23T00:50:22;12.60;99.90
32612;DHT22;19030;49.478;8.986;2023-03-23T00:52:23;12.60;99.90
32612;DHT22;19030;49.478;8.986;2023-03-23T00:54:25;12.60;99.90
32612;DHT22;19030;49.478;8.986;2023-03-23T00:56:25;12.60;99.90
32612;DHT22;19030;49.478;8.986;2023-03-23T00:58:27;12.60;99.90
32612;DHT22;19030;49.478;8.986;2023-03-23T01:00:27;12.60;99.90
32612;DHT22;19030;49.478;8.986;2023-03-23T01:02:28;12.60;99.90
32612;DHT22;19030;49.478;8.986;2023-03-23T01:04:29;12.60;99.90
32612;DHT22;19030;49.478;8.986;2023-03-23T01:06:34;12.50;99.90
32612;DHT22;19030;49.478;8.986;2023-03-23T01:08:42;12.50;99.90
32612;DHT22;19030;49.478;8.986;2023-03-23T01:10:46;12.50;99.90
32612;DHT22;19030;49.478;8.986;2023-03-23T01:12:46;12.50;99.90
32612;DHT22;19030;49.478;8.986;2023-03-23T01:14:47;12.40;99.90
32612;DHT22;19030;49.478;8.986;2023-03-23T01:16:48;12.40;99.90
32612;DHT22;19030;49.478;8.986;2023-03-23T01:18:48;12.40;99.90
32612;DHT22;19030;49.478;8.986;2023-03-23T01:20:49;12.40;99.90
32612;DHT22;19030;49.478;8.986;2023-03-23T01:22:50;12.40;99.90
32612;DHT22;19030;49.478;8.986;2023-03-23T01:24:50;12.40;99.90
32612;DHT22;19030;49.478;8.986;2023-03-23T01:26:51;12.40;99.90
32612;DHT22;19030;49.478;8.986;2023-03-23T01:28:52;12.40;99.90
32612;DHT22;19030;49.478;8.986;2023-03-23T01:30:53;12.40;99.90
32612;DHT22;19030;49.478;8.986;2023-03-23T01:32:59;12.50;99.90
32612;DHT22;19030;49.478;8.986;2023-03-23T01:35:00;12.50;99.90
32612;DHT22;19030;49.478;8.986;2023-03-23T01:37:00;12.50;99.90
32612;DHT22;19030;49.478;8.986;2023-03-23T01:39:03;12.40;99.90
32612;DHT22;19030;49.478;8.986;2023-03-23T01:41:05;12.40;99.90
32612;DHT22;19030;49.478;8.986;2023-03-23T01:43:13;12.40;99.90
32612;DHT22;19030;49.478;8.986;2023-03-23T01:47:21;12.30;99.90
32612;DHT22;19030;49.478;8.986;2023-03-23T01:49:27;12.30;99.90
32612;DHT22;19030;49.478;8.986;2023-03-23T01:51:30;12.20;99.90
32612;DHT22;19030;49.478;8.986;2023-03-23T01:53:37;12.20;99.90
32612;DHT22;19030;49.478;8.986;2023-03-23T01:55:40;12.10;99.90
32612;DHT22;19030;49.478;8.986;2023-03-23T01:57:42;12.10;99.90
32612;DHT22;19030;49.478;8.986;2023-03-23T01:59:46;12.10;99.90
32612;DHT22;19030;49.478;8.986;2023-03-23T02:01:53;12.10;99.90
32612;DHT22;19030;49.478;8.986;2023-03-23T02:03:56;12.00;99.90
32612;DHT22;19030;49.478;8.986;2023-03-23T02:05:58;12.00;99.90
32612;DHT22;19030;49.478;8.986;2023-03-23T02:08:09;12.00;99.90
32612;DHT22;19030;49.478;8.986;2023-03-23T02:10:10;12.00;99.90
32612;DHT22;19030;49.478;8.986;2023-03-23T02:12:11;12.00;99.90
32612;DHT22;19030;49.478;8.986;2023-03-23T02:14:13;12.00;99.90
32612;DHT22;19030;49.478;8.986;2023-03-23T02:20:54;12.00;99.90
32612;DHT22;19030;49.478;8.986;2023-03-23T02:34:45;11.80;99.90
32612;DHT22;19030;49.478;8.986;2023-03-23T02:37:06;11.80;99.90
32612;DHT22;19030;49.478;8.986;2023-03-23T02:39:16;11.80;99.90
32612;DHT22;19030;49.478;8.986;2023-03-23T02:41:22;11.70;99.90
32612;DHT22;19030;49.478;8.986;2023-03-23T02:43:25;11.70;99.90
32612;DHT22;19030;49.478;8.986;2023-03-23T02:45:28;11.70;99.90
32612;DHT22;19030;49.478;8.986;2023-03-23T02:47:29;11.70;99.90
32612;DHT22;19030;49.478;8.986;2023-03-23T02:49:32;11.70;99.90
32612;DHT22;19030;49.478;8.986;2023-03-23T02:51:35;11.70;99.90
32612;DHT22;19030;49.478;8.986;2023-03-23T02:53:40;11.70;99.90
32612;DHT22;19030;49.478;8.986;2023-03-23T02:55:43;11.70;99.90
32612;DHT22;19030;49.478;8.986;2023-03-23T02:57:50;11.70;99.90
32612;DHT22;19030;49.478;8.986;2023-03-23T02:59:52;11.70;99.90
32612;DHT22;19030;49.478;8.986;2023-03-23T03:02:17;11.70;99.90
32612;DHT22;19030;49.478;8.986;2023-03-23T03:04:20;11.80;99.90
32612;DHT22;19030;49.478;8.986;2023-03-23T03:06:32;11.80;99.90
32612;DHT22;19030;49.478;8.986;2023-03-23T03:08:55;11.80;99.90
32612;DHT22;19030;49.478;8.986;2023-03-23T03:11:14;11.80;99.90
32612;DHT22;19030;49.478;8.986;2023-03-23T03:17:25;11.80;99.90
32612;DHT22;19030;49.478;8.986;2023-03-23T03:19:49;11.80;99.90
32612;DHT22;19030;49.478;8.986;2023-03-23T03:21:53;11.80;99.90
32612;DHT22;19030;49.478;8.986;2023-03-23T03:24:02;11.70;99.90
32612;DHT22;19030;49.478;8.986;2023-03-23T03:26:04;11.70;99.90
32612;DHT22;19030;49.478;8.986;2023-03-23T03:28:19;11.70;99.90
32612;DHT22;19030;49.478;8.986;2023-03-23T03:30:26;11.70;99.90
32612;DHT22;19030;49.478;8.986;2023-03-23T03:32:37;11.70;99.90
32612;DHT22;19030;49.478;8.986;2023-03-23T03:34:39;11.70;99.90
32612;DHT22;19030;49.478;8.986;2023-03-23T03:36:41;11.70;99.90
32612;DHT22;19030;49.478;8.986;2023-03-23T03:38:47;11.70;99.90
32612;DHT22;19030;49.478;8.986;2023-03-23T03:40:48;11.60;99.90
32612;DHT22;19030;49.478;8.986;2023-03-23T03:42:50;11.60;99.90
32612;DHT22;19030;49.478;8.986;2023-03-23T03:44:51;11.60;99.90
32612;DHT22;19030;49.478;8.986;2023-03-23T03:46:52;11.60;99.90
32612;DHT22;19030;49.478;8.986;2023-03-23T03:48:53;11.60;99.90
32612;DHT22;19030;49.478;8.986;2023-03-23T03:50:55;11.60;99.90
32612;DHT22;19030;49.478;8.986;2023-03-23T03:52:57;11.50;99.90
32612;DHT22;19030;49.478;8.986;2023-03-23T03:54:58;11.50;99.90
32612;DHT22;19030;49.478;8.986;2023-03-23T03:57:00;11.50;99.90
32612;DHT22;19030;49.478;8.986;2023-03-23T03:59:19;11.50;99.90
32612;DHT22;19030;49.478;8.986;2023-03-23T04:01:54;11.50;99.90
32612;DHT22;19030;49.478;8.986;2023-03-23T04:03:56;11.50;99.90
32612;DHT22;19030;49.478;8.986;2023-03-23T04:06:04;11.50;99.90
32612;DHT22;19030;49.478;8.986;2023-03-23T04:08:05;11.50;99.90
32612;DHT22;19030;49.478;8.986;2023-03-23T04:10:07;11.50;99.90
32612;DHT22;19030;49.478;8.986;2023-03-23T04:12:08;11.50;99.90
32612;DHT22;19030;49.478;8.986;2023-03-23T04:14:27;11.50;99.90
32612;DHT22;19030;49.478;8.986;2023-03-23T04:16:29;11.40;99.90
32612;DHT22;19030;49.478;8.986;2023-03-23T04:18:30;11.40;99.90
32612;DHT22;19030;49.478;8.986;2023-03-23T04:20:32;11.40;99.90
32612;DHT22;19030;49.478;8.986;2023-03-23T04:22:35;11.40;99.90
32612;DHT22;19030;49.478;8.986;2023-03-23T04:24:36;11.40;99.90
32612;DHT22;19030;49.478;8.986;2023-03-23T04:26:40;11.40;99.90
32612;DHT22;19030;49.478;8.986;2023-03-23T04:28:50;11.30;99.90
32612;DHT22;19030;49.478;8.986;2023-03-23T04:31:10;11.30;99.90
32612;DHT22;19030;49.478;8.986;2023-03-23T04:33:15;11.30;99.90
32612;DHT22;19030;49.478;8.986;2023-03-23T04:35:21;11.30;99.90
32612;DHT22;19030;49.478;8.986;2023-03-23T04:37:29;11.30;99.90
32612;DHT22;19030;49.478;8.986;2023-03-23T04:39:34;11.30;99.90
32612;DHT22;19030;49.478;8.986;2023-03-23T04:41:37;11.30;99.90
32612;DHT22;19030;49.478;8.986;2023-03-23T04:43:52;11.30;99.90
32612;DHT22;19030;49.478;8.986;2023-03-23T04:46:01;11.30;99.90
32612;DHT22;19030;49.478;8.986;2023-03-23T04:48:04;11.30;99.90
32612;DHT22;19030;49.478;8.986;2023-03-23T04:50:16;11.30;99.90
32612;DHT22;19030;49.478;8.986;2023-03-23T04:52:18;11.30;99.90
32612;DHT22;19030;49.478;8.986;2023-03-23T04:54:25;11.30;99.90
32612;DHT22;19030;49.478;8.986;2023-03-23T04:56:29;11.20;99.90
32612;DHT22;19030;49.478;8.986;2023-03-23T04:58:33;11.20;99.90
32612;DHT22;19030;49.478;8.986;2023-03-23T05:00:52;11.20;99.90
32612;DHT22;19030;49.478;8.986;2023-03-23T05:02:55;11.20;99.90
32612;DHT22;19030;49.478;8.986;2023-03-23T05:04:59;11.10;99.90
32612;DHT22;19030;49.478;8.986;2023-03-23T05:07:03;11.10;99.90
32612;DHT22;19030;49.478;8.986;2023-03-23T05:09:06;11.10;99.90
32612;DHT22;19030;49.478;8.986;2023-03-23T05:11:08;11.10;99.90
32612;DHT22;19030;49.478;8.986;2023-03-23T05:13:12;11.10;99.90
32612;DHT22;19030;49.478;8.986;2023-03-23T05:15:14;11.10;99.90
32612;DHT22;19030;49.478;8.986;2023-03-23T05:17:17;11.10;99.90
32612;DHT22;19030;49.478;8.986;2023-03-23T05:19:21;11.10;99.90
32612;DHT22;19030;49.478;8.986;2023-03-23T05:21:23;11.00;99.90
32612;DHT22;19030;49.478;8.986;2023-03-23T05:23:28;11.00;99.90
32612;DHT22;19030;49.478;8.986;2023-03-23T05:25:36;11.00;99.90
32612;DHT22;19030;49.478;8.986;2023-03-23T05:27:46;11.00;99.90
32612;DHT22;19030;49.478;8.986;2023-03-23T05:30:00;10.90;99.90
32612;DHT22;19030;49.478;8.986;2023-03-23T05:32:04;10.90;99.90
32612;DHT22;19030;49.478;8.986;2023-03-23T05:34:08;10.90;99.90
32612;DHT22;19030;49.478;8.986;2023-03-23T05:36:19;10.90;99.90
32612;DHT22;19030;49.478;8.986;2023-03-23T05:38:43;10.90;99.90
32612;DHT22;19030;49.478;8.986;2023-03-23T05:40:45;10.90;99.90
32612;DHT22;19030;49.478;8.986;2023-03-23T05:42:49;10.80;99.90
32612;DHT22;19030;49.478;8.986;2023-03-23T05:44:56;10.90;99.90
32612;DHT22;19030;49.478;8.986;2023-03-23T05:46:57;10.90;99.90
32612;DHT22;19030;49.478;8.986;2023-03-23T05:48:57;10.90;99.90
32612;DHT22;19030;49.478;8.986;2023-03-23T05:51:05;10.90;99.90
32612;DHT22;19030;49.478;8.986;2023-03-23T05:53:09;10.90;99.90
32612;DHT22;19030;49.478;8.986;2023-03-23T05:55:12;10.90;99.90
32612;DHT22;19030;49.478;8.986;2023-03-23T05:57:17;10.90;99.90
32612;DHT22;19030;49.478;8.986;2023-03-23T05:59:21;10.90;99.90
32612;DHT22;19030;49.478;8.986;2023-03-23T06:01:25;10.90;99.90
32612;DHT22;19030;49.478;8.986;2023-03-23T06:03:26;10.90;99.90
32612;DHT22;19030;49.478;8.986;2023-03-23T06:05:53;10.90;99.90
32612;DHT22;19030;49.478;8.986;2023-03-23T06:07:57;10.90;99.90
32612;DHT22;19030;49.478;8.986;2023-03-23T06:09:58;10.90;99.90
32612;DHT22;19030;49.478;8.986;2023-03-23T06:11:59;10.90;99.90
32612;DHT22;19030;49.478;8.986;2023-03-23T06:14:10;10.90;99.90
32612;DHT22;19030;49.478;8.986;2023-03-23T06:16:13;10.90;99.90
32612;DHT22;19030;49.478;8.986;2023-03-23T06:18:26;10.90;99.90
32612;DHT22;19030;49.478;8.986;2023-03-23T06:20:53;11.00;99.90
32612;DHT22;19030;49.478;8.986;2023-03-23T06:23:12;11.00;99.90
32612;DHT22;19030;49.478;8.986;2023-03-23T06:25:13;11.00;99.90
32612;DHT22;19030;49.478;8.986;2023-03-23T06:27:16;11.00;99.90
32612;DHT22;19030;49.478;8.986;2023-03-23T06:29:18;11.00;99.90
32612;DHT22;19030;49.478;8.986;2023-03-23T06:31:24;11.00;99.90
32612;DHT22;19030;49.478;8.986;2023-03-23T06:33:25;11.00;99.90
32612;DHT22;19030;49.478;8.986;2023-03-23T06:36:04;11.10;99.90
32612;DHT22;19030;49.478;8.986;2023-03-23T06:38:31;11.10;99.90
32612;DHT22;19030;49.478;8.986;2023-03-23T06:40:31;11.10;99.90
32612;DHT22;19030;49.478;8.986;2023-03-23T06:42:33;11.10;99.90
32612;DHT22;19030;49.478;8.986;2023-03-23T06:44:57;11.10;99.90
32612;DHT22;19030;49.478;8.986;2023-03-23T06:46:59;11.10;99.90
32612;DHT22;19030;49.478;8.986;2023-03-23T06:49:03;11.10;99.90
32612;DHT22;19030;49.478;8.986;2023-03-23T06:51:12;11.10;99.90
32612;DHT22;19030;49.478;8.986;2023-03-23T06:53:15;11.10;99.90
32612;DHT22;19030;49.478;8.986;2023-03-23T06:55:18;11.10;99.90
32612;DHT22;19030;49.478;8.986;2023-03-23T06:57:19;11.10;99.90
32612;DHT22;19030;49.478;8.986;2023-03-23T06:59:21;11.10;99.90
32612;DHT22;19030;49.478;8.986;2023-03-23T07:01:22;11.10;99.90
32612;DHT22;19030;49.478;8.986;2023-03-23T07:03:30;11.10;99.90
32612;DHT22;19030;49.478;8.986;2023-03-23T07:05:33;11.10;99.90
32612;DHT22;19030;49.478;8.986;2023-03-23T07:07:36;11.10;99.90
32612;DHT22;19030;49.478;8.986;2023-03-23T07:09:48;11.10;99.90
32612;DHT22;19030;49.478;8.986;2023-03-23T07:11:52;11.10;99.90
32612;DHT22;19030;49.478;8.986;2023-03-23T07:14:06;11.10;99.90
32612;DHT22;19030;49.478;8.986;2023-03-23T07:16:07;11.10;99.90
32612;DHT22;19030;49.478;8.986;2023-03-23T07:18:08;11.10;99.90
32612;DHT22;19030;49.478;8.986;2023-03-23T07:20:14;11.10;99.90
32612;DHT22;19030;49.478;8.986;2023-03-23T07:22:16;11.20;99.90
32612;DHT22;19030;49.478;8.986;2023-03-23T07:24:22;11.30;99.90
32612;DHT22;19030;49.478;8.986;2023-03-23T07:26:34;11.30;99.90
32612;DHT22;19030;49.478;8.986;2023-03-23T07:28:34;11.40;99.90
32612;DHT22;19030;49.478;8.986;2023-03-23T07:30:41;11.40;99.90
32612;DHT22;19030;49.478;8.986;2023-03-23T07:32:44;11.40;99.90
32612;DHT22;19030;49.478;8.986;2023-03-23T07:34:44;11.40;99.90
32612;DHT22;19030;49.478;8.986;2023-03-23T07:37:07;11.40;99.90
32612;DHT22;19030;49.478;8.986;2023-03-23T07:39:10;11.50;99.90
32612;DHT22;19030;49.478;8.986;2023-03-23T07:41:12;11.50;99.90
32612;DHT22;19030;49.478;8.986;2023-03-23T07:43:15;11.60;99.90
32612;DHT22;19030;49.478;8.986;2023-03-23T07:45:51;11.70;99.90
32612;DHT22;19030;49.478;8.986;2023-03-23T07:47:52;11.70;99.90
32612;DHT22;19030;49.478;8.986;2023-03-23T07:49:53;11.80;99.90
32612;DHT22;19030;49.478;8.986;2023-03-23T07:52:06;11.80;99.90
32612;DHT22;19030;49.478;8.986;2023-03-23T07:54:07;11.80;99.90
32612;DHT22;19030;49.478;8.986;2023-03-23T07:56:37;11.90;99.90
32612;DHT22;19030;49.478;8.986;2023-03-23T07:58:55;11.90;99.90
32612;DHT22;19030;49.478;8.986;2023-03-23T08:00:55;11.90;99.90
32612;DHT22;19030;49.478;8.986;2023-03-23T08:02:58;11.90;99.90
32612;DHT22;19030;49.478;8.986;2023-03-23T08:05:08;11.90;99.90
32612;DHT22;19030;49.478;8.986;2023-03-23T08:07:37;11.90;99.90
32612;DHT22;19030;49.478;8.986;2023-03-23T08:09:38;11.80;99.90
32612;DHT22;19030;49.478;8.986;2023-03-23T08:12:03;11.90;99.90
32612;DHT22;19030;49.478;8.986;2023-03-23T08:14:31;11.90;99.90
32612;DHT22;19030;49.478;8.986;2023-03-23T08:16:50;11.90;99.90
32612;DHT22;19030;49.478;8.986;2023-03-23T08:19:07;12.00;99.90
32612;DHT22;19030;49.478;8.986;2023-03-23T08:21:08;12.00;99.90
32612;DHT22;19030;49.478;8.986;2023-03-23T08:23:27;12.00;99.90
32612;DHT22;19030;49.478;8.986;2023-03-23T08:25:29;12.00;99.90
32612;DHT22;19030;49.478;8.986;2023-03-23T08:27:53;12.00;99.90
32612;DHT22;19030;49.478;8.986;2023-03-23T08:30:06;12.10;99.90
32612;DHT22;19030;49.478;8.986;2023-03-23T08:32:26;12.20;99.90
32612;DHT22;19030;49.478;8.986;2023-03-23T08:34:40;12.20;99.90
32612;DHT22;19030;49.478;8.986;2023-03-23T08:37:00;12.20;99.90
32612;DHT22;19030;49.478;8.986;2023-03-23T08:39:31;12.30;99.90
32612;DHT22;19030;49.478;8.986;2023-03-23T08:41:44;12.40;99.90
32612;DHT22;19030;49.478;8.986;2023-03-23T08:43:54;12.60;99.90
32612;DHT22;19030;49.478;8.986;2023-03-23T08:46:14;12.70;99.90
32612;DHT22;19030;49.478;8.986;2023-03-23T08:48:47;12.80;99.90
32612;DHT22;19030;49.478;8.986;2023-03-23T08:51:14;12.90;99.90
32612;DHT22;19030;49.478;8.986;2023-03-23T08:53:24;12.90;99.90
32612;DHT22;19030;49.478;8.986;2023-03-23T08:56:06;12.90;99.90
32612;DHT22;19030;49.478;8.986;2023-03-23T08:58:29;12.90;99.90
32612;DHT22;19030;49.478;8.986;2023-03-23T09:00:48;12.90;99.90
32612;DHT22;19030;49.478;8.986;2023-03-23T09:03:03;12.90;99.90
32612;DHT22;19030;49.478;8.986;2023-03-23T09:05:15;12.80;99.90
32612;DHT22;19030;49.478;8.986;2023-03-23T09:07:41;12.80;99.90
32612;DHT22;19030;49.478;8.986;2023-03-23T09:09:41;12.80;99.90
32612;DHT22;19030;49.478;8.986;2023-03-23T09:11:43;12.80;99.90
32612;DHT22;19030;49.478;8.986;2023-03-23T09:13:43;12.80;99.90
32612;DHT22;19030;49.478;8.986;2023-03-23T09:15:44;12.90;99.90
32612;DHT22;19030;49.478;8.986;2023-03-23T09:17:46;13.00;99.90
32612;DHT22;19030;49.478;8.986;2023-03-23T09:19:47;13.20;99.90
32612;DHT22;19030;49.478;8.986;2023-03-23T09:21:48;13.40;99.90
32612;DHT22;19030;49.478;8.986;2023-03-23T09:23:48;13.60;99.90
32612;DHT22;19030;49.478;8.986;2023-03-23T09:25:49;13.80;99.90
32612;DHT22;19030;49.478;8.986;2023-03-23T09:27:51;13.90;99.90
32612;DHT22;19030;49.478;8.986;2023-03-23T09:29:53;14.00;99.90
32612;DHT22;19030;49.478;8.986;2023-03-23T09:31:55;14.00;99.90
32612;DHT22;19030;49.478;8.986;2023-03-23T09:33:56;13.90;99.90
32612;DHT22;19030;49.478;8.986;2023-03-23T09:35:57;13.90;99.90
32612;DHT22;19030;49.478;8.986;2023-03-23T09:37:57;13.80;99.90
32612;DHT22;19030;49.478;8.986;2023-03-23T09:40:03;13.80;99.90
32612;DHT22;19030;49.478;8.986;2023-03-23T09:42:13;13.70;99.90
32612;DHT22;19030;49.478;8.986;2023-03-23T09:50:42;13.60;99.90
32612;DHT22;19030;49.478;8.986;2023-03-23T09:52:51;13.70;99.90
32612;DHT22;19030;49.478;8.986;2023-03-23T09:54:55;13.70;99.90
32612;DHT22;19030;49.478;8.986;2023-03-23T09:56:58;13.70;99.90
32612;DHT22;19030;49.478;8.986;2023-03-23T10:01:21;13.80;99.90
32612;DHT22;19030;49.478;8.986;2023-03-23T10:03:31;13.80;99.90
32612;DHT22;19030;49.478;8.986;2023-03-23T10:05:41;13.80;99.90
32612;DHT22;19030;49.478;8.986;2023-03-23T10:07:42;13.80;99.90
32612;DHT22;19030;49.478;8.986;2023-03-23T10:09:44;13.80;99.90
32612;DHT22;19030;49.478;8.986;2023-03-23T10:11:50;13.80;99.90
32612;DHT22;19030;49.478;8.986;2023-03-23T10:14:10;13.80;99.90
32612;DHT22;19030;49.478;8.986;2023-03-23T10:16:20;13.80;99.90
32612;DHT22;19030;49.478;8.986;2023-03-23T10:20:59;13.80;99.90
32612;DHT22;19030;49.478;8.986;2023-03-23T10:25:19;13.90;99.90
32612;DHT22;19030;49.478;8.986;2023-03-23T10:29:54;13.80;99.90
32612;DHT22;19030;49.478;8.986;2023-03-23T10:32:11;13.80;99.90
32612;DHT22;19030;49.478;8.986;2023-03-23T10:34:30;13.90;99.90
32612;DHT22;19030;49.478;8.986;2023-03-23T10:36:40;14.20;99.90
32612;DHT22;19030;49.478;8.986;2023-03-23T10:38:49;14.50;99.90
32612;DHT22;19030;49.478;8.986;2023-03-23T10:40:55;14.70;99.90
32612;DHT22;19030;49.478;8.986;2023-03-23T10:42:57;14.70;99.90
32612;DHT22;19030;49.478;8.986;2023-03-23T10:45:00;14.60;99.90
32612;DHT22;19030;49.478;8.986;2023-03-23T10:47:09;14.60;99.90
32612;DHT22;19030;49.478;8.986;2023-03-23T10:49:12;14.50;99.90
32612;DHT22;19030;49.478;8.986;2023-03-23T10:51:17;14.50;99.90
32612;DHT22;19030;49.478;8.986;2023-03-23T10:53:22;14.50;99.90
32612;DHT22;19030;49.478;8.986;2023-03-23T10:55:34;14.60;99.90
32612;DHT22;19030;49.478;8.986;2023-03-23T10:57:37;14.60;99.90
32612;DHT22;19030;49.478;8.986;2023-03-23T10:59:40;14.70;99.90
32612;DHT22;19030;49.478;8.986;2023-03-23T11:01:44;14.90;99.90
32612;DHT22;19030;49.478;8.986;2023-03-23T11:03:47;15.10;99.90
32612;DHT22;19030;49.478;8.986;2023-03-23T11:05:58;15.20;99.90
32612;DHT22;19030;49.478;8.986;2023-03-23T11:08:00;15.30;99.90
32612;DHT22;19030;49.478;8.986;2023-03-23T11:10:28;15.40;99.90
32612;DHT22;19030;49.478;8.986;2023-03-23T11:12:32;15.20;99.90
32612;DHT22;19030;49.478;8.986;2023-03-23T11:14:35;15.00;99.90
32612;DHT22;19030;49.478;8.986;2023-03-23T11:16:44;14.70;99.90
32612;DHT22;19030;49.478;8.986;2023-03-23T11:18:45;14.60;99.90
32612;DHT22;19030;49.478;8.986;2023-03-23T11:20:50;14.40;99.90
32612;DHT22;19030;49.478;8.986;2023-03-23T11:22:53;14.40;99.90
32612;DHT22;19030;49.478;8.986;2023-03-23T11:24:55;14.30;99.90
32612;DHT22;19030;49.478;8.986;2023-03-23T11:26:57;14.30;99.90
32612;DHT22;19030;49.478;8.986;2023-03-23T11:29:14;14.30;99.90
32612;DHT22;19030;49.478;8.986;2023-03-23T11:31:16;14.30;99.90
32612;DHT22;19030;49.478;8.986;2023-03-23T11:33:17;14.40;99.90
32612;DHT22;19030;49.478;8.986;2023-03-23T11:35:22;14.30;99.90
32612;DHT22;19030;49.478;8.986;2023-03-23T11:42:24;14.20;99.90
32612;DHT22;19030;49.478;8.986;2023-03-23T11:44:39;14.10;99.90
32612;DHT22;19030;49.478;8.986;2023-03-23T11:46:55;14.00;99.90
32612;DHT22;19030;49.478;8.986;2023-03-23T11:49:04;14.00;99.90
32612;DHT22;19030;49.478;8.986;2023-03-23T11:51:16;14.10;99.90
32612;DHT22;19030;49.478;8.986;2023-03-23T11:57:45;14.40;99.90
32612;DHT22;19030;49.478;8.986;2023-03-23T11:59:46;14.50;99.90
32612;DHT22;19030;49.478;8.986;2023-03-23T12:04:40;14.70;99.90
32612;DHT22;19030;49.478;8.986;2023-03-23T12:07:05;14.70;99.90
32612;DHT22;19030;49.478;8.986;2023-03-23T12:11:55;14.70;99.90
32612;DHT22;19030;49.478;8.986;2023-03-23T12:16:15;14.80;99.90
32612;DHT22;19030;49.478;8.986;2023-03-23T12:18:45;14.70;99.90
32612;DHT22;19030;49.478;8.986;2023-03-23T12:21:03;14.60;99.90
32612;DHT22;19030;49.478;8.986;2023-03-23T12:23:35;14.50;99.90
32612;DHT22;19030;49.478;8.986;2023-03-23T12:28:03;14.40;99.90
32612;DHT22;19030;49.478;8.986;2023-03-23T12:32:31;14.30;99.90
32612;DHT22;19030;49.478;8.986;2023-03-23T12:36:59;14.30;99.90
32612;DHT22;19030;49.478;8.986;2023-03-23T12:39:40;14.20;99.90
32612;DHT22;19030;49.478;8.986;2023-03-23T12:41:51;14.20;99.90
32612;DHT22;19030;49.478;8.986;2023-03-23T12:48:14;14.10;99.90
32612;DHT22;19030;49.478;8.986;2023-03-23T12:50:29;14.10;99.90
32612;DHT22;19030;49.478;8.986;2023-03-23T12:52:38;14.10;99.90
32612;DHT22;19030;49.478;8.986;2023-03-23T12:54:46;14.10;99.90
32612;DHT22;19030;49.478;8.986;2023-03-23T12:57:07;14.10;99.90
32612;DHT22;19030;49.478;8.986;2023-03-23T12:59:14;14.00;99.90
32612;DHT22;19030;49.478;8.986;2023-03-23T13:01:25;14.00;99.90
32612;DHT22;19030;49.478;8.986;2023-03-23T13:03:50;13.90;99.90
32612;DHT22;19030;49.478;8.986;2023-03-23T13:06:00;13.90;99.90
32612;DHT22;19030;49.478;8.986;2023-03-23T13:08:21;13.90;99.90
32612;DHT22;19030;49.478;8.986;2023-03-23T13:10:39;13.80;99.90
32612;DHT22;19030;49.478;8.986;2023-03-23T13:12:42;13.70;99.90
32612;DHT22;19030;49.478;8.986;2023-03-23T13:21:19;13.90;99.90
32612;DHT22;19030;49.478;8.986;2023-03-23T13:23:38;14.10;99.90
32612;DHT22;19030;49.478;8.986;2023-03-23T13:27:59;14.30;99.90
32612;DHT22;19030;49.478;8.986;2023-03-23T13:30:01;14.30;99.90
32612;DHT22;19030;49.478;8.986;2023-03-23T13:32:37;14.30;99.90
32612;DHT22;19030;49.478;8.986;2023-03-23T13:34:39;14.20;99.90
32612;DHT22;19030;49.478;8.986;2023-03-23T13:37:02;14.10;99.90
32612;DHT22;19030;49.478;8.986;2023-03-23T13:39:06;14.10;99.90
32612;DHT22;19030;49.478;8.986;2023-03-23T13:41:11;14.10;99.90
32612;DHT22;19030;49.478;8.986;2023-03-23T13:43:13;14.00;99.90
32612;DHT22;19030;49.478;8.986;2023-03-23T13:47:40;13.90;99.90
32612;DHT22;19030;49.478;8.986;2023-03-23T13:52:14;13.90;99.90
32612;DHT22;19030;49.478;8.986;2023-03-23T13:54:23;13.90;99.90
32612;DHT22;19030;49.478;8.986;2023-03-23T13:56:39;13.90;99.90
32612;DHT22;19030;49.478;8.986;2023-03-23T13:58:52;13.80;99.90
32612;DHT22;19030;49.478;8.986;2023-03-23T14:03:13;13.70;99.90
32612;DHT22;19030;49.478;8.986;2023-03-23T14:07:17;13.60;99.90
32612;DHT22;19030;49.478;8.986;2023-03-23T14:09:28;13.60;99.90
32612;DHT22;19030;49.478;8.986;2023-03-23T14:11:30;13.60;99.90
32612;DHT22;19030;49.478;8.986;2023-03-23T14:13:32;13.60;99.90
32612;DHT22;19030;49.478;8.986;2023-03-23T14:15:42;13.50;99.90
32612;DHT22;19030;49.478;8.986;2023-03-23T14:17:44;13.50;99.90
32612;DHT22;19030;49.478;8.986;2023-03-23T14:19:51;13.60;99.90
32612;DHT22;19030;49.478;8.986;2023-03-23T14:21:59;13.60;99.90
32612;DHT22;19030;49.478;8.986;2023-03-23T14:24:01;13.60;99.90
32612;DHT22;19030;49.478;8.986;2023-03-23T14:26:09;13.70;99.90
32612;DHT22;19030;49.478;8.986;2023-03-23T14:28:18;13.80;99.90
32612;DHT22;19030;49.478;8.986;2023-03-23T14:30:23;13.80;99.90
32612;DHT22;19030;49.478;8.986;2023-03-23T14:32:27;13.80;99.90
32612;DHT22;19030;49.478;8.986;2023-03-23T14:34:29;13.80;99.90
32612;DHT22;19030;49.478;8.986;2023-03-23T14:36:32;13.90;99.90
32612;DHT22;19030;49.478;8.986;2023-03-23T14:38:36;13.90;99.90
32612;DHT22;19030;49.478;8.986;2023-03-23T14:40:36;13.90;99.90
32612;DHT22;19030;49.478;8.986;2023-03-23T14:42:37;14.00;99.90
32612;DHT22;19030;49.478;8.986;2023-03-23T14:44:44;14.00;99.90
32612;DHT22;19030;49.478;8.986;2023-03-23T14:46:46;13.90;99.90
32612;DHT22;19030;49.478;8.986;2023-03-23T14:48:47;14.00;99.90